createdAt,value
2023-11-05T07:09:19.293Z,10.67
2023-11-05T07:11:47.215Z,10.54
2023-11-05T07:14:14.121Z,10.53
2023-11-05T07:16:41.134Z,10.48
2023-11-05T07:19:08.107Z,10.64
2023-11-05T07:21:35.010Z,10.67
2023-11-05T07:24:02.062Z,10.55
2023-11-05T07:26:28.977Z,10.36
2023-11-05T07:28:55.902Z,10.43
2023-11-05T07:31:23.149Z,10.46
2023-11-05T07:33:50.262Z,10.45
2023-11-05T07:36:17.213Z,10.60
2023-11-05T07:38:44.257Z,10.55
2023-11-05T07:41:11.197Z,10.68
2023-11-05T07:43:38.195Z,10.82
2023-11-05T07:46:05.133Z,10.92
2023-11-05T07:48:32.014Z,10.98
2023-11-05T07:50:58.920Z,10.73
2023-11-05T07:53:25.876Z,10.82
2023-11-05T07:55:52.727Z,10.79
2023-11-05T07:58:19.670Z,10.70
2023-11-05T08:00:46.694Z,10.79
2023-11-05T08:03:13.638Z,10.80
2023-11-05T08:05:40.672Z,10.76
2023-11-05T08:08:07.604Z,10.89
2023-11-05T08:10:34.557Z,10.99
2023-11-05T08:13:01.412Z,11.16
2023-11-05T08:15:28.400Z,11.37
2023-11-05T08:17:55.413Z,11.34
2023-11-05T08:20:22.436Z,11.37
2023-11-05T08:22:49.528Z,11.42
2023-11-05T08:25:16.762Z,11.53
2023-11-05T08:27:43.824Z,11.38
2023-11-05T08:30:10.918Z,11.40
2023-11-05T08:32:37.880Z,11.36
2023-11-05T08:35:04.823Z,11.40
2023-11-05T08:37:31.909Z,11.46
2023-11-05T08:39:58.921Z,11.53
2023-11-05T08:42:25.832Z,11.53
2023-11-05T08:44:52.832Z,11.46
2023-11-05T08:47:19.747Z,11.60
2023-11-05T08:49:46.759Z,11.57
2023-11-05T08:52:13.897Z,11.74
2023-11-05T08:54:40.870Z,11.79
2023-11-05T08:57:07.774Z,11.66
2023-11-05T08:59:34.791Z,11.50
2023-11-05T09:02:01.791Z,11.41
2023-11-05T09:04:28.830Z,11.58
2023-11-05T09:06:55.862Z,11.59
2023-11-05T09:09:22.764Z,11.57
2023-11-05T09:11:49.732Z,11.69
2023-11-05T09:14:16.850Z,11.74
2023-11-05T09:16:43.612Z,11.60
2023-11-05T09:19:10.347Z,11.51
2023-11-05T09:21:37.186Z,11.69
2023-11-05T09:24:03.873Z,11.39
2023-11-05T09:26:32.605Z,11.48
2023-11-05T09:29:00.323Z,11.43
2023-11-05T09:31:28.335Z,11.47
2023-11-05T09:33:55.990Z,11.46
2023-11-05T09:36:22.714Z,11.68
2023-11-05T09:38:49.413Z,11.76
2023-11-05T12:55:37.308Z,12.45
2023-11-05T12:58:04.346Z,12.22
2023-11-05T13:00:31.495Z,12.23
2023-11-05T13:02:58.716Z,12.44
2023-11-05T13:05:26.336Z,12.42
2023-11-05T13:07:54.478Z,12.29
2023-11-05T13:10:22.759Z,11.92
2023-11-05T13:12:49.693Z,11.63
2023-11-05T13:15:16.681Z,11.73
2023-11-05T13:17:43.705Z,11.83
2023-11-05T13:23:09.132Z,11.80
2023-11-05T13:25:44.152Z,11.74
2023-11-05T13:28:11.700Z,11.90
2023-11-05T13:30:46.199Z,12.16
2023-11-05T14:53:16.582Z,11.64
2023-11-05T14:55:43.548Z,11.96
2023-11-05T14:58:10.549Z,12.24
2023-11-05T15:00:37.358Z,12.00
2023-11-05T15:03:04.196Z,12.17
2023-11-05T15:05:31.054Z,12.17
2023-11-05T15:07:58.222Z,11.96
2023-11-05T15:10:25.124Z,12.03
2023-11-05T15:12:51.846Z,12.11
2023-11-05T15:15:18.708Z,12.20
2023-11-05T15:17:45.494Z,12.13
2023-11-05T15:20:12.302Z,12.18
2023-11-05T15:22:39.117Z,12.22
2023-11-05T15:25:07.775Z,12.27
2023-11-05T15:27:34.483Z,12.35
2023-11-05T15:30:01.297Z,12.24
2023-11-05T15:32:28.057Z,12.28
2023-11-05T15:34:54.801Z,12.19
2023-11-05T15:37:21.540Z,12.22
2023-11-05T15:39:48.256Z,12.16
2023-11-05T15:42:15.072Z,12.11
2023-11-05T15:44:41.865Z,12.11
2023-11-05T15:47:08.657Z,11.79
2023-11-05T15:49:35.416Z,11.73
2023-11-05T15:52:02.231Z,11.94
2023-11-05T15:54:29.094Z,11.70
2023-11-05T15:56:55.732Z,11.78
2023-11-05T15:59:22.734Z,11.91
2023-11-05T16:01:49.706Z,11.93
2023-11-05T16:04:16.798Z,12.13
2023-11-05T16:06:43.994Z,12.16
2023-11-05T16:09:10.842Z,12.00
2023-11-05T16:11:37.817Z,11.48
2023-11-05T16:14:04.931Z,11.51
2023-11-05T16:16:31.941Z,11.64
2023-11-05T16:18:59.366Z,11.52
2023-11-05T16:21:26.422Z,11.61
2023-11-05T16:23:53.393Z,11.70
2023-11-05T16:26:20.196Z,12.04
2023-11-05T16:28:47.209Z,12.52
2023-11-05T16:31:13.961Z,12.67
2023-11-05T16:33:40.726Z,12.78
2023-11-05T16:36:07.714Z,12.87
2023-11-05T16:38:34.453Z,12.88
2023-11-05T16:41:01.196Z,13.29
2023-11-05T16:43:28.048Z,12.97
2023-11-05T16:45:54.825Z,12.72
2023-11-05T16:48:21.633Z,12.64
2023-11-05T16:50:48.587Z,12.63
2023-11-05T16:53:17.238Z,12.68
2023-11-05T16:55:44.358Z,12.94
2023-11-05T16:58:11.221Z,12.92
2023-11-05T17:00:38.146Z,13.03
2023-11-05T17:03:04.916Z,13.20
2023-11-05T17:05:31.933Z,12.97
2023-11-05T17:07:58.769Z,12.55
2023-11-05T17:23:49.294Z,11.90
2023-11-05T17:26:16.207Z,12.17
2023-11-05T17:28:43.272Z,12.23
2023-11-05T17:31:10.252Z,12.15
2023-11-05T17:33:37.979Z,11.54
2023-11-05T17:36:04.986Z,11.62
2023-11-05T17:38:31.737Z,11.74
2023-11-05T17:40:58.507Z,11.80
2023-11-05T17:43:25.199Z,11.64
2023-11-05T17:45:52.060Z,11.31
2023-11-05T17:48:18.921Z,11.42
2023-11-05T17:50:45.721Z,11.64
2023-11-05T17:53:12.636Z,11.29
2023-11-05T17:55:39.397Z,11.16
2023-11-05T17:58:06.258Z,11.07
2023-11-05T18:00:33.117Z,10.88
2023-11-05T18:03:02.905Z,10.93
2023-11-05T18:05:29.721Z,10.72
2023-11-05T18:07:56.665Z,10.82
2023-11-05T18:10:24.195Z,11.24
2023-11-05T18:12:52.473Z,11.36
2023-11-05T18:15:19.236Z,11.37
2023-11-05T18:17:46.038Z,11.31
2023-11-05T18:20:12.999Z,11.45
2023-11-05T18:22:39.824Z,11.18
2023-11-05T18:25:06.596Z,11.32
2023-11-05T18:27:33.497Z,11.32
2023-11-05T18:30:00.669Z,11.29
2023-11-05T18:32:27.629Z,11.49
2023-11-05T18:34:54.711Z,11.65
2023-11-05T18:37:21.831Z,11.65
2023-11-05T18:39:48.829Z,11.63
2023-11-05T18:42:15.901Z,11.48
2023-11-05T18:44:42.998Z,11.60
2023-11-05T18:47:09.878Z,11.48
2023-11-05T18:49:36.912Z,11.29
2023-11-05T18:52:03.898Z,11.47
2023-11-05T18:54:30.887Z,11.65
2023-11-05T18:56:57.774Z,11.87
2023-11-05T18:59:24.802Z,11.93
2023-11-05T19:01:51.732Z,12.14
2023-11-05T19:04:18.664Z,12.11
2023-11-05T19:06:45.663Z,12.26
2023-11-05T19:09:12.533Z,12.37
2023-11-05T19:11:39.502Z,12.52
2023-11-05T19:14:13.684Z,12.60
2023-11-05T19:16:43.160Z,12.46
2023-11-05T19:19:10.778Z,12.47
2023-11-05T19:21:37.761Z,12.63
2023-11-05T19:24:04.666Z,12.41
2023-11-05T19:26:31.670Z,12.40
2023-11-05T19:28:58.757Z,12.67
2023-11-05T19:31:26.106Z,13.02
2023-11-05T19:33:53.282Z,12.83
2023-11-05T19:36:20.218Z,12.69
2023-11-05T19:38:46.889Z,12.54
2023-11-05T19:41:13.556Z,12.78
2023-11-05T19:43:40.414Z,12.41
2023-11-05T19:46:07.149Z,12.58
2023-11-05T19:48:33.987Z,12.38
2023-11-05T19:51:01.244Z,12.69
2023-11-05T19:53:28.971Z,12.67
2023-11-05T19:55:56.119Z,12.74
2023-11-05T19:58:22.908Z,12.43
2023-11-05T20:00:49.700Z,12.54
2023-11-05T20:03:16.494Z,12.54
2023-11-05T20:05:43.459Z,12.60
2023-11-05T20:08:10.389Z,12.62
2023-11-05T20:10:37.278Z,12.87
2023-11-05T20:13:04.990Z,12.85
2023-11-05T20:15:31.770Z,13.05
2023-11-05T20:17:58.728Z,13.01
2023-11-05T20:20:25.640Z,12.54
2023-11-05T20:22:52.574Z,12.01
2023-11-05T20:25:20.666Z,12.43
2023-11-05T20:27:47.581Z,12.07
2023-11-05T20:30:14.370Z,12.27
2023-11-05T20:32:42.081Z,12.18
2023-11-05T21:05:18.941Z,12.28
2023-11-05T21:07:46.007Z,12.55
2023-11-05T21:10:16.367Z,12.44
2023-11-05T21:12:44.720Z,12.32
2023-11-05T21:15:15.183Z,12.34
2023-11-05T21:17:42.356Z,12.38
2023-11-05T21:20:09.466Z,12.47
2023-11-05T21:22:36.560Z,12.73
2023-11-05T21:25:03.688Z,12.75
2023-11-05T21:27:30.741Z,12.90
2023-11-05T21:29:57.702Z,12.97
2023-11-05T21:32:24.751Z,12.90
2023-11-05T21:34:52.151Z,13.25
2023-11-05T21:37:19.421Z,12.94
2023-11-05T21:39:46.425Z,12.53
2023-11-05T21:42:13.656Z,12.21
2023-11-05T21:44:40.816Z,12.10
2023-11-05T21:47:07.704Z,12.16
2023-11-05T21:49:34.754Z,12.40
2023-11-05T21:52:01.675Z,12.35
2023-11-05T21:54:28.687Z,12.50
2023-11-05T21:56:55.690Z,11.97
2023-11-05T21:59:22.668Z,11.88
2023-11-05T22:01:49.646Z,11.82
2023-11-05T22:04:16.780Z,11.92
2023-11-05T23:08:09.460Z,22.6
2023-11-05T23:18:22.797Z,22.6
2023-11-05T23:28:54.991Z,22.6
2023-11-05T23:59:44.731Z,22.7
